createdAt,value
2022-08-05T00:07:59.762Z,61.95
2022-08-05T00:15:55.149Z,62.68
2022-08-05T00:23:15.753Z,63.93
2022-08-05T00:30:51.941Z,63.21
2022-08-05T00:38:28.860Z,63.68
2022-08-05T00:46:08.936Z,65.70
2022-08-05T00:54:01.375Z,66.89
2022-08-05T01:01:42.745Z,67.40
2022-08-05T01:09:22.855Z,68.43
2022-08-05T01:17:04.688Z,68.69
2022-08-05T01:25:23.661Z,70.12
2022-08-05T01:33:19.628Z,71.82
2022-08-05T01:40:55.274Z,72.98
2022-08-05T01:48:32.971Z,73.26
2022-08-05T01:56:09.077Z,74.85
2022-08-05T02:03:47.986Z,74.14
2022-08-05T02:11:24.037Z,74.31
2022-08-05T02:19:18.734Z,74.63
2022-08-05T02:26:56.401Z,74.34
2022-08-05T02:34:34.175Z,75.03
2022-08-05T02:42:09.363Z,75.45
2022-08-05T02:49:45.558Z,75.97
2022-08-05T02:58:10.736Z,76.65
2022-08-05T03:05:17.120Z,76.41
2022-08-05T03:20:30.874Z,75.97
2022-08-05T03:28:06.885Z,75.58
2022-08-05T03:35:46.341Z,75.78
2022-08-05T03:44:09.663Z,75.61
2022-08-05T03:52:38.147Z,75.44
2022-08-05T03:59:20.438Z,75.33
2022-08-05T04:06:56.664Z,75.15
2022-08-05T04:14:32.310Z,75.25
2022-08-05T04:22:11.945Z,74.97
2022-08-05T04:29:46.042Z,75.19
2022-08-05T04:38:00.667Z,74.80
2022-08-05T04:45:31.097Z,75.55
2022-08-05T04:53:16.994Z,74.76
2022-08-05T05:00:51.153Z,73.98
2022-08-05T05:08:26.687Z,73.79
2022-08-05T05:16:06.095Z,72.56
2022-08-05T05:24:04.034Z,72.48
2022-08-05T05:39:10.969Z,74.67
2022-08-05T05:46:45.255Z,75.06
2022-08-05T05:54:49.908Z,75.74
2022-08-05T06:02:17.142Z,77.07
2022-08-05T06:10:10.750Z,81.34
2022-08-05T06:17:52.806Z,82.66
2022-08-05T06:26:12.762Z,82.85
2022-08-05T06:33:33.426Z,84.41
2022-08-05T06:41:19.720Z,87.56
2022-08-05T06:48:59.174Z,85.94
2022-08-05T06:56:35.221Z,85.75
2022-08-05T07:04:09.198Z,83.54
2022-08-05T07:11:51.483Z,83.97
2022-08-05T07:20:10.615Z,86.71
2022-08-05T07:27:21.111Z,87.84
2022-08-05T07:34:57.735Z,85.80
2022-08-05T07:42:34.219Z,84.70
2022-08-05T07:50:10.975Z,85.13
2022-08-05T07:58:02.414Z,86.46
2022-08-05T08:05:39.654Z,87.56
2022-08-05T08:13:15.900Z,94.04
2022-08-05T08:21:03.201Z,94.54
2022-08-05T08:28:58.956Z,95.26
2022-08-05T08:36:49.060Z,94.02
2022-08-05T08:45:25.162Z,91.45
2022-08-05T08:52:26.553Z,91.25
2022-08-05T09:00:01.913Z,89.15
2022-08-05T09:07:39.448Z,86.67
2022-08-05T09:15:31.151Z,86.82
2022-08-05T09:23:09.461Z,86.66
2022-08-05T09:30:52.951Z,84.77
2022-08-05T09:38:27.424Z,82.77
2022-08-05T09:46:08.830Z,81.60
2022-08-05T09:53:53.783Z,82.55
2022-08-05T10:01:32.021Z,92.04
2022-08-05T10:09:27.286Z,95.61
2022-08-05T10:17:37.935Z,100.00
2022-08-05T10:25:09.845Z,100.00
2022-08-05T10:33:00.693Z,100.00
2022-08-05T10:40:43.533Z,99.60
2022-08-05T10:48:56.614Z,97.63
2022-08-05T10:56:45.338Z,95.18
2022-08-05T11:04:26.259Z,91.21
2022-08-05T11:12:00.240Z,88.68
2022-08-05T11:20:17.608Z,87.28
2022-08-05T11:27:50.914Z,81.35
2022-08-05T11:35:44.556Z,79.60
2022-08-05T11:44:05.846Z,77.34
2022-08-05T11:51:44.811Z,74.02
2022-08-05T11:59:26.298Z,73.39
2022-08-05T12:07:01.950Z,68.29
2022-08-05T12:14:43.164Z,67.43
2022-08-05T12:22:20.142Z,63.49
2022-08-05T12:30:03.327Z,63.41
2022-08-05T12:37:37.970Z,62.89
2022-08-05T12:45:13.779Z,61.65
2022-08-05T12:52:56.751Z,62.53
2022-08-05T13:01:59.857Z,59.14
2022-08-05T13:08:32.281Z,60.27
2022-08-05T13:16:15.305Z,58.69
2022-08-05T13:23:52.258Z,58.10
2022-08-05T13:31:34.082Z,58.45
2022-08-05T13:40:13.153Z,58.25
2022-08-05T13:47:34.920Z,59.69
2022-08-05T13:55:10.190Z,60.66
2022-08-05T14:02:45.571Z,58.55
2022-08-05T14:10:28.593Z,56.86
2022-08-05T14:18:05.802Z,58.28
2022-08-05T14:25:54.021Z,59.18
2022-08-05T14:33:56.281Z,59.62
2022-08-05T14:41:24.668Z,61.13
2022-08-05T14:49:04.195Z,62.12
2022-08-05T14:56:44.099Z,63.17
2022-08-05T15:04:22.819Z,64.43
2022-08-05T15:11:58.079Z,65.16
2022-08-05T15:19:33.433Z,66.71
2022-08-05T15:27:08.934Z,68.84
2022-08-05T15:34:44.729Z,71.77
2022-08-05T15:42:53.987Z,73.60
2022-08-05T15:50:15.514Z,75.61
2022-08-05T15:57:50.129Z,77.34
2022-08-05T16:05:28.367Z,76.58
2022-08-05T16:13:02.452Z,74.84
2022-08-05T16:20:38.007Z,74.65
2022-08-05T16:28:11.907Z,80.14
2022-08-05T16:35:53.007Z,84.78
2022-08-05T16:43:30.272Z,88.29
2022-08-05T16:51:10.158Z,88.43
2022-08-05T16:58:44.782Z,89.07
2022-08-05T17:06:20.082Z,87.75
2022-08-05T17:14:00.369Z,89.61
2022-08-05T17:21:42.872Z,89.05
2022-08-05T17:29:39.870Z,89.34
2022-08-05T17:37:39.377Z,85.43
2022-08-05T17:53:14.691Z,85.25
2022-08-05T18:00:50.688Z,89.63
2022-08-05T18:08:26.425Z,91.93
2022-08-05T18:16:00.511Z,93.39
2022-08-05T18:23:45.554Z,92.44
2022-08-05T18:31:20.307Z,89.03
2022-08-05T18:38:55.804Z,81.48
2022-08-05T18:46:29.568Z,77.47
2022-08-05T18:54:06.656Z,76.39
2022-08-05T19:01:48.185Z,76.36
2022-08-05T19:09:40.018Z,75.65
2022-08-05T19:17:14.529Z,74.85
2022-08-05T19:24:54.698Z,73.90
2022-08-05T19:32:30.852Z,72.88
2022-08-05T19:40:10.240Z,72.99
2022-08-05T19:47:44.438Z,74.27
2022-08-05T19:56:14.497Z,75.56
2022-08-05T20:03:13.503Z,75.79
2022-08-05T20:10:49.973Z,75.76
2022-08-05T20:18:36.028Z,76.79
2022-08-05T20:26:16.001Z,77.58
2022-08-05T20:33:50.821Z,78.60
2022-08-05T20:41:27.339Z,80.83
2022-08-05T20:49:24.235Z,82.69
2022-08-05T20:57:00.847Z,83.20
2022-08-05T21:04:37.343Z,85.80
2022-08-05T21:12:12.851Z,87.18
2022-08-05T21:19:52.309Z,88.06
2022-08-05T21:27:28.057Z,88.62
2022-08-05T21:35:29.604Z,90.51
2022-08-05T21:43:05.854Z,93.26
2022-08-05T21:50:42.124Z,95.72
2022-08-05T21:58:32.013Z,95.10
2022-08-05T22:06:08.282Z,96.28
2022-08-05T22:14:05.961Z,97.98
2022-08-05T22:21:37.431Z,98.58
2022-08-05T22:29:14.476Z,98.97
2022-08-05T22:36:48.722Z,97.09
2022-08-05T22:44:23.896Z,91.55
2022-08-05T22:52:04.447Z,86.43
2022-08-05T22:59:51.844Z,82.81
2022-08-05T23:07:28.000Z,79.23
2022-08-05T23:15:08.813Z,78.19
2022-08-05T23:22:43.378Z,78.39
2022-08-05T23:30:26.960Z,78.85
2022-08-05T23:38:03.015Z,78.88
2022-08-05T23:45:39.656Z,78.66
2022-08-05T23:53:22.731Z,77.73
